Terminal Aerodrome Forecast
Issued by NWS

Home | Current Version | Previous Version | Text Only | Print | Product List | Glossary Off
Versions: 1 2 3 4 5 6 7 8 9 10 11 12 13 14 15 16

075
FTUS43 KICT 221651 AAB
TAFHUT
TAF AMD
KHUT 221651Z 2217/2312 31029G39KT P6SM SCT015 OVC025
     FM230000 32019G27KT P6SM BKN060
     FM230600 31011KT P6SM SKC=

USA.gov is the U.S. government's official web portal to all federal, state and local government web resources and services.